sensor_id;sensor_type;location;lat;lon;timestamp;P1;durP1;ratioP1;P2;durP2;ratioP2
505;SDS011;551;48.524;9.056;2022-07-29T00:02:08;17.60;;;12.80;;
505;SDS011;551;48.524;9.056;2022-07-29T00:04:34;16.57;;;12.90;;
505;SDS011;551;48.524;9.056;2022-07-29T00:07:00;15.60;;;14.20;;
505;SDS011;551;48.524;9.056;2022-07-29T00:09:26;16.83;;;15.23;;
505;SDS011;551;48.524;9.056;2022-07-29T00:11:53;17.40;;;15.60;;
505;SDS011;551;48.524;9.056;2022-07-29T00:14:19;19.60;;;15.87;;
505;SDS011;551;48.524;9.056;2022-07-29T00:16:45;16.37;;;14.07;;
505;SDS011;551;48.524;9.056;2022-07-29T00:19:11;14.20;;;12.90;;
505;SDS011;551;48.524;9.056;2022-07-29T00:21:37;15.67;;;14.13;;
505;SDS011;551;48.524;9.056;2022-07-29T00:24:03;14.67;;;13.13;;
505;SDS011;551;48.524;9.056;2022-07-29T00:26:29;16.67;;;14.23;;
505;SDS011;551;48.524;9.056;2022-07-29T00:28:57;15.37;;;13.70;;
505;SDS011;551;48.524;9.056;2022-07-29T00:31:23;15.30;;;13.20;;
505;SDS011;551;48.524;9.056;2022-07-29T00:33:49;14.43;;;13.03;;
505;SDS011;551;48.524;9.056;2022-07-29T00:36:15;13.47;;;12.10;;
505;SDS011;551;48.524;9.056;2022-07-29T00:38:41;13.70;;;12.47;;
505;SDS011;551;48.524;9.056;2022-07-29T00:41:10;15.07;;;13.47;;
505;SDS011;551;48.524;9.056;2022-07-29T00:43:35;15.03;;;12.90;;
505;SDS011;551;48.524;9.056;2022-07-29T00:46:01;13.67;;;12.37;;
505;SDS011;551;48.524;9.056;2022-07-29T00:48:27;16.63;;;12.90;;
505;SDS011;551;48.524;9.056;2022-07-29T00:50:53;13.60;;;11.40;;
505;SDS011;551;48.524;9.056;2022-07-29T00:53:20;16.80;;;13.00;;
505;SDS011;551;48.524;9.056;2022-07-29T00:55:46;13.57;;;12.17;;
505;SDS011;551;48.524;9.056;2022-07-29T00:58:12;13.30;;;12.10;;
505;SDS011;551;48.524;9.056;2022-07-29T01:00:38;13.40;;;12.00;;
505;SDS011;551;48.524;9.056;2022-07-29T01:03:05;17.80;;;12.67;;
505;SDS011;551;48.524;9.056;2022-07-29T01:05:31;12.97;;;11.63;;
505;SDS011;551;48.524;9.056;2022-07-29T01:07:57;13.07;;;11.83;;
505;SDS011;551;48.524;9.056;2022-07-29T01:10:24;15.53;;;13.93;;
505;SDS011;551;48.524;9.056;2022-07-29T01:12:51;13.83;;;12.40;;
505;SDS011;551;48.524;9.056;2022-07-29T01:15:18;14.33;;;11.90;;
505;SDS011;551;48.524;9.056;2022-07-29T01:17:57;14.77;;;11.70;;
505;SDS011;551;48.524;9.056;2022-07-29T01:20:31;16.13;;;12.30;;
505;SDS011;551;48.524;9.056;2022-07-29T01:25:32;12.10;;;10.93;;
505;SDS011;551;48.524;9.056;2022-07-29T01:30:39;12.10;;;10.83;;
505;SDS011;551;48.524;9.056;2022-07-29T01:33:09;11.50;;;9.47;;
505;SDS011;551;48.524;9.056;2022-07-29T01:35:56;10.87;;;9.83;;
505;SDS011;551;48.524;9.056;2022-07-29T01:38:24;10.77;;;9.67;;
505;SDS011;551;48.524;9.056;2022-07-29T01:40:51;13.53;;;10.70;;
505;SDS011;551;48.524;9.056;2022-07-29T01:43:23;11.40;;;10.20;;
505;SDS011;551;48.524;9.056;2022-07-29T01:45:53;14.30;;;11.07;;
505;SDS011;551;48.524;9.056;2022-07-29T01:48:23;11.30;;;10.03;;
505;SDS011;551;48.524;9.056;2022-07-29T01:50:57;11.57;;;10.33;;
505;SDS011;551;48.524;9.056;2022-07-29T01:53:47;11.80;;;10.60;;
505;SDS011;551;48.524;9.056;2022-07-29T01:56:16;12.63;;;11.50;;
505;SDS011;551;48.524;9.056;2022-07-29T01:58:44;12.97;;;11.67;;
505;SDS011;551;48.524;9.056;2022-07-29T02:01:11;14.03;;;10.37;;
505;SDS011;551;48.524;9.056;2022-07-29T02:03:38;13.60;;;10.20;;
505;SDS011;551;48.524;9.056;2022-07-29T02:06:06;13.17;;;9.90;;
505;SDS011;551;48.524;9.056;2022-07-29T02:08:33;11.63;;;10.40;;
505;SDS011;551;48.524;9.056;2022-07-29T02:11:00;11.70;;;10.60;;
505;SDS011;551;48.524;9.056;2022-07-29T02:13:27;11.80;;;10.10;;
505;SDS011;551;48.524;9.056;2022-07-29T02:15:55;10.70;;;9.60;;
505;SDS011;551;48.524;9.056;2022-07-29T02:18:22;11.47;;;10.47;;
505;SDS011;551;48.524;9.056;2022-07-29T02:20:49;10.53;;;9.53;;
505;SDS011;551;48.524;9.056;2022-07-29T02:23:19;11.77;;;10.67;;
505;SDS011;551;48.524;9.056;2022-07-29T02:25:46;11.00;;;9.90;;
505;SDS011;551;48.524;9.056;2022-07-29T02:28:13;15.17;;;11.00;;
505;SDS011;551;48.524;9.056;2022-07-29T02:30:40;13.97;;;11.30;;
505;SDS011;551;48.524;9.056;2022-07-29T02:33:07;12.50;;;11.00;;
505;SDS011;551;48.524;9.056;2022-07-29T02:35:34;11.90;;;10.70;;
505;SDS011;551;48.524;9.056;2022-07-29T02:38:00;11.80;;;10.60;;
505;SDS011;551;48.524;9.056;2022-07-29T02:40:46;12.23;;;10.37;;
505;SDS011;551;48.524;9.056;2022-07-29T02:43:12;10.90;;;9.87;;
505;SDS011;551;48.524;9.056;2022-07-29T02:45:38;11.27;;;10.10;;
505;SDS011;551;48.524;9.056;2022-07-29T02:48:09;9.53;;;8.63;;
505;SDS011;551;48.524;9.056;2022-07-29T02:50:40;13.83;;;10.77;;
505;SDS011;551;48.524;9.056;2022-07-29T02:53:11;10.70;;;9.30;;
505;SDS011;551;48.524;9.056;2022-07-29T02:55:51;10.97;;;9.87;;
505;SDS011;551;48.524;9.056;2022-07-29T03:00:53;11.23;;;9.70;;
505;SDS011;551;48.524;9.056;2022-07-29T03:03:21;10.57;;;9.50;;
505;SDS011;551;48.524;9.056;2022-07-29T03:05:47;9.63;;;8.63;;
505;SDS011;551;48.524;9.056;2022-07-29T03:08:13;11.90;;;9.83;;
505;SDS011;551;48.524;9.056;2022-07-29T03:10:43;12.80;;;9.13;;
505;SDS011;551;48.524;9.056;2022-07-29T03:13:09;10.87;;;9.77;;
505;SDS011;551;48.524;9.056;2022-07-29T03:15:35;12.83;;;10.13;;
505;SDS011;551;48.524;9.056;2022-07-29T03:18:02;11.13;;;10.07;;
505;SDS011;551;48.524;9.056;2022-07-29T03:20:28;11.57;;;10.47;;
505;SDS011;551;48.524;9.056;2022-07-29T03:22:54;16.10;;;11.03;;
505;SDS011;551;48.524;9.056;2022-07-29T03:25:20;11.33;;;10.23;;
505;SDS011;551;48.524;9.056;2022-07-29T03:27:46;12.63;;;11.33;;
505;SDS011;551;48.524;9.056;2022-07-29T03:30:13;11.83;;;10.60;;
505;SDS011;551;48.524;9.056;2022-07-29T03:32:39;11.40;;;9.53;;
505;SDS011;551;48.524;9.056;2022-07-29T03:35:06;10.83;;;9.60;;
505;SDS011;551;48.524;9.056;2022-07-29T03:37:32;13.30;;;8.17;;
505;SDS011;551;48.524;9.056;2022-07-29T03:39:58;10.83;;;9.83;;
505;SDS011;551;48.524;9.056;2022-07-29T03:42:26;9.47;;;8.40;;
505;SDS011;551;48.524;9.056;2022-07-29T03:44:54;9.30;;;8.50;;
505;SDS011;551;48.524;9.056;2022-07-29T03:47:22;10.80;;;9.70;;
505;SDS011;551;48.524;9.056;2022-07-29T03:49:50;9.67;;;8.77;;
505;SDS011;551;48.524;9.056;2022-07-29T03:52:17;13.57;;;9.70;;
505;SDS011;551;48.524;9.056;2022-07-29T03:54:43;12.50;;;8.70;;
505;SDS011;551;48.524;9.056;2022-07-29T03:57:10;14.33;;;11.27;;
505;SDS011;551;48.524;9.056;2022-07-29T03:59:36;11.13;;;10.03;;
505;SDS011;551;48.524;9.056;2022-07-29T04:02:03;12.83;;;11.20;;
505;SDS011;551;48.524;9.056;2022-07-29T04:04:32;11.30;;;10.27;;
505;SDS011;551;48.524;9.056;2022-07-29T04:06:58;10.60;;;9.47;;
505;SDS011;551;48.524;9.056;2022-07-29T04:09:24;15.77;;;10.67;;
505;SDS011;551;48.524;9.056;2022-07-29T04:11:51;13.53;;;11.63;;
505;SDS011;551;48.524;9.056;2022-07-29T04:14:17;13.93;;;11.30;;
505;SDS011;551;48.524;9.056;2022-07-29T04:16:43;13.03;;;9.47;;
505;SDS011;551;48.524;9.056;2022-07-29T04:19:09;9.90;;;8.90;;
505;SDS011;551;48.524;9.056;2022-07-29T04:21:41;9.47;;;8.50;;
505;SDS011;551;48.524;9.056;2022-07-29T04:24:07;14.30;;;9.90;;
505;SDS011;551;48.524;9.056;2022-07-29T04:26:34;11.00;;;9.63;;
505;SDS011;551;48.524;9.056;2022-07-29T04:29:00;13.17;;;10.53;;
505;SDS011;551;48.524;9.056;2022-07-29T04:31:26;14.33;;;9.93;;
505;SDS011;551;48.524;9.056;2022-07-29T04:33:52;12.57;;;10.20;;
505;SDS011;551;48.524;9.056;2022-07-29T04:36:18;11.70;;;9.93;;
505;SDS011;551;48.524;9.056;2022-07-29T04:38:44;11.33;;;9.80;;
505;SDS011;551;48.524;9.056;2022-07-29T04:41:10;10.60;;;9.60;;
505;SDS011;551;48.524;9.056;2022-07-29T04:43:36;15.33;;;10.73;;
505;SDS011;551;48.524;9.056;2022-07-29T04:46:05;12.33;;;10.60;;
505;SDS011;551;48.524;9.056;2022-07-29T04:48:32;10.03;;;9.10;;
505;SDS011;551;48.524;9.056;2022-07-29T04:50:58;14.03;;;10.20;;
505;SDS011;551;48.524;9.056;2022-07-29T04:53:24;14.10;;;9.97;;
505;SDS011;551;48.524;9.056;2022-07-29T04:55:50;12.20;;;8.60;;
505;SDS011;551;48.524;9.056;2022-07-29T04:58:16;9.67;;;8.67;;
505;SDS011;551;48.524;9.056;2022-07-29T05:00:42;10.70;;;8.87;;
505;SDS011;551;48.524;9.056;2022-07-29T05:03:08;13.07;;;7.93;;
505;SDS011;551;48.524;9.056;2022-07-29T05:05:34;8.13;;;7.43;;
505;SDS011;551;48.524;9.056;2022-07-29T05:08:00;7.10;;;6.50;;
505;SDS011;551;48.524;9.056;2022-07-29T05:10:26;7.77;;;6.97;;
505;SDS011;551;48.524;9.056;2022-07-29T05:12:52;7.00;;;6.30;;
505;SDS011;551;48.524;9.056;2022-07-29T05:15:18;12.50;;;7.53;;
505;SDS011;551;48.524;9.056;2022-07-29T05:17:44;5.60;;;5.10;;
505;SDS011;551;48.524;9.056;2022-07-29T05:20:10;6.93;;;6.33;;
505;SDS011;551;48.524;9.056;2022-07-29T05:22:36;8.60;;;6.80;;
505;SDS011;551;48.524;9.056;2022-07-29T05:25:02;9.97;;;6.33;;
505;SDS011;551;48.524;9.056;2022-07-29T05:27:28;7.40;;;6.90;;
505;SDS011;551;48.524;9.056;2022-07-29T05:29:54;6.53;;;5.90;;
505;SDS011;551;48.524;9.056;2022-07-29T05:32:21;8.13;;;6.40;;
505;SDS011;551;48.524;9.056;2022-07-29T05:34:47;6.90;;;6.23;;
505;SDS011;551;48.524;9.056;2022-07-29T05:37:13;6.53;;;6.03;;
505;SDS011;551;48.524;9.056;2022-07-29T05:39:39;6.30;;;5.80;;
505;SDS011;551;48.524;9.056;2022-07-29T05:42:08;9.80;;;6.47;;
505;SDS011;551;48.524;9.056;2022-07-29T05:44:38;6.47;;;5.90;;
505;SDS011;551;48.524;9.056;2022-07-29T05:47:04;8.80;;;7.40;;
505;SDS011;551;48.524;9.056;2022-07-29T05:49:31;7.93;;;5.73;;
505;SDS011;551;48.524;9.056;2022-07-29T05:51:57;6.33;;;5.60;;
505;SDS011;551;48.524;9.056;2022-07-29T05:54:23;6.93;;;4.90;;
505;SDS011;551;48.524;9.056;2022-07-29T05:56:48;5.60;;;5.20;;
505;SDS011;551;48.524;9.056;2022-07-29T05:59:14;4.90;;;4.40;;
505;SDS011;551;48.524;9.056;2022-07-29T06:01:40;7.47;;;5.70;;
505;SDS011;551;48.524;9.056;2022-07-29T06:04:06;12.63;;;6.00;;
505;SDS011;551;48.524;9.056;2022-07-29T06:06:32;5.43;;;4.93;;
505;SDS011;551;48.524;9.056;2022-07-29T06:08:58;6.80;;;6.10;;
505;SDS011;551;48.524;9.056;2022-07-29T06:11:24;5.60;;;5.10;;
505;SDS011;551;48.524;9.056;2022-07-29T06:13:49;5.30;;;4.80;;
505;SDS011;551;48.524;9.056;2022-07-29T06:16:15;6.80;;;5.90;;
505;SDS011;551;48.524;9.056;2022-07-29T06:18:41;7.27;;;4.60;;
505;SDS011;551;48.524;9.056;2022-07-29T06:21:09;6.83;;;4.13;;
505;SDS011;551;48.524;9.056;2022-07-29T06:23:38;5.80;;;4.73;;
505;SDS011;551;48.524;9.056;2022-07-29T06:26:04;5.43;;;4.93;;
505;SDS011;551;48.524;9.056;2022-07-29T06:28:30;6.63;;;4.50;;
505;SDS011;551;48.524;9.056;2022-07-29T06:30:56;4.77;;;4.33;;
505;SDS011;551;48.524;9.056;2022-07-29T06:33:22;5.00;;;4.27;;
505;SDS011;551;48.524;9.056;2022-07-29T06:35:47;4.87;;;3.90;;
505;SDS011;551;48.524;9.056;2022-07-29T06:38:14;4.23;;;3.93;;
505;SDS011;551;48.524;9.056;2022-07-29T06:40:41;4.50;;;4.30;;
505;SDS011;551;48.524;9.056;2022-07-29T06:43:36;4.70;;;4.37;;
505;SDS011;551;48.524;9.056;2022-07-29T06:46:04;10.23;;;4.30;;
505;SDS011;551;48.524;9.056;2022-07-29T06:48:31;4.13;;;3.83;;
505;SDS011;551;48.524;9.056;2022-07-29T06:50:58;3.77;;;3.57;;
505;SDS011;551;48.524;9.056;2022-07-29T06:53:24;6.67;;;3.90;;
505;SDS011;551;48.524;9.056;2022-07-29T06:55:50;4.33;;;3.53;;
505;SDS011;551;48.524;9.056;2022-07-29T06:58:16;4.03;;;3.73;;
505;SDS011;551;48.524;9.056;2022-07-29T07:00:45;10.73;;;3.73;;
505;SDS011;551;48.524;9.056;2022-07-29T07:03:11;4.10;;;3.80;;
505;SDS011;551;48.524;9.056;2022-07-29T07:05:37;4.40;;;4.00;;
505;SDS011;551;48.524;9.056;2022-07-29T07:08:03;4.93;;;4.50;;
505;SDS011;551;48.524;9.056;2022-07-29T07:10:29;5.73;;;4.97;;
505;SDS011;551;48.524;9.056;2022-07-29T07:12:55;4.30;;;4.00;;
505;SDS011;551;48.524;9.056;2022-07-29T07:15:21;5.03;;;4.60;;
505;SDS011;551;48.524;9.056;2022-07-29T07:17:49;5.33;;;4.73;;
505;SDS011;551;48.524;9.056;2022-07-29T07:20:16;6.07;;;5.47;;
505;SDS011;551;48.524;9.056;2022-07-29T07:22:42;5.53;;;5.03;;
505;SDS011;551;48.524;9.056;2022-07-29T07:25:08;5.03;;;4.63;;
505;SDS011;551;48.524;9.056;2022-07-29T07:27:35;6.07;;;4.80;;
505;SDS011;551;48.524;9.056;2022-07-29T07:30:02;6.30;;;5.70;;
505;SDS011;551;48.524;9.056;2022-07-29T07:32:30;5.87;;;5.40;;
505;SDS011;551;48.524;9.056;2022-07-29T07:34:56;5.17;;;4.77;;
505;SDS011;551;48.524;9.056;2022-07-29T07:37:22;4.40;;;4.00;;
505;SDS011;551;48.524;9.056;2022-07-29T07:39:49;4.97;;;4.57;;
505;SDS011;551;48.524;9.056;2022-07-29T07:42:15;5.13;;;4.63;;
505;SDS011;551;48.524;9.056;2022-07-29T07:44:40;4.50;;;4.10;;
505;SDS011;551;48.524;9.056;2022-07-29T07:47:06;5.60;;;4.57;;
505;SDS011;551;48.524;9.056;2022-07-29T07:49:32;11.33;;;4.97;;
505;SDS011;551;48.524;9.056;2022-07-29T07:51:57;5.37;;;4.63;;
505;SDS011;551;48.524;9.056;2022-07-29T07:54:23;4.83;;;4.43;;
505;SDS011;551;48.524;9.056;2022-07-29T07:56:48;4.63;;;4.23;;
505;SDS011;551;48.524;9.056;2022-07-29T07:59:14;7.53;;;4.67;;
505;SDS011;551;48.524;9.056;2022-07-29T08:01:40;4.90;;;4.60;;
505;SDS011;551;48.524;9.056;2022-07-29T08:04:06;4.53;;;4.13;;
505;SDS011;551;48.524;9.056;2022-07-29T08:06:32;6.27;;;4.87;;
505;SDS011;551;48.524;9.056;2022-07-29T08:08:59;5.33;;;4.83;;
505;SDS011;551;48.524;9.056;2022-07-29T08:11:25;4.93;;;4.60;;
505;SDS011;551;48.524;9.056;2022-07-29T08:13:51;4.60;;;4.30;;
505;SDS011;551;48.524;9.056;2022-07-29T08:16:17;4.90;;;4.50;;
505;SDS011;551;48.524;9.056;2022-07-29T08:18:43;4.73;;;4.40;;
505;SDS011;551;48.524;9.056;2022-07-29T08:21:09;5.03;;;4.63;;
505;SDS011;551;48.524;9.056;2022-07-29T08:23:35;4.50;;;4.17;;
505;SDS011;551;48.524;9.056;2022-07-29T08:26:07;4.50;;;4.30;;
505;SDS011;551;48.524;9.056;2022-07-29T08:28:35;4.90;;;4.50;;
505;SDS011;551;48.524;9.056;2022-07-29T08:31:05;4.37;;;3.83;;
505;SDS011;551;48.524;9.056;2022-07-29T08:33:31;5.83;;;4.40;;
505;SDS011;551;48.524;9.056;2022-07-29T08:35:57;5.10;;;4.70;;
505;SDS011;551;48.524;9.056;2022-07-29T08:38:23;5.30;;;4.90;;
505;SDS011;551;48.524;9.056;2022-07-29T08:40:51;4.93;;;4.53;;
505;SDS011;551;48.524;9.056;2022-07-29T08:43:17;6.33;;;4.50;;
505;SDS011;551;48.524;9.056;2022-07-29T08:45:44;4.73;;;4.33;;
505;SDS011;551;48.524;9.056;2022-07-29T08:48:12;5.30;;;4.90;;
505;SDS011;551;48.524;9.056;2022-07-29T08:50:39;5.00;;;4.60;;
505;SDS011;551;48.524;9.056;2022-07-29T08:53:06;5.33;;;4.97;;
505;SDS011;551;48.524;9.056;2022-07-29T08:55:36;5.47;;;4.63;;
505;SDS011;551;48.524;9.056;2022-07-29T08:58:09;6.93;;;4.80;;
505;SDS011;551;48.524;9.056;2022-07-29T09:00:36;4.67;;;4.30;;
505;SDS011;551;48.524;9.056;2022-07-29T09:03:05;5.37;;;4.97;;
505;SDS011;551;48.524;9.056;2022-07-29T09:05:33;5.20;;;4.80;;
505;SDS011;551;48.524;9.056;2022-07-29T09:07:59;6.83;;;4.90;;
505;SDS011;551;48.524;9.056;2022-07-29T09:10:26;6.40;;;4.50;;
505;SDS011;551;48.524;9.056;2022-07-29T09:12:53;5.63;;;5.13;;
505;SDS011;551;48.524;9.056;2022-07-29T09:15:19;5.77;;;5.37;;
505;SDS011;551;48.524;9.056;2022-07-29T09:17:46;5.53;;;5.13;;
505;SDS011;551;48.524;9.056;2022-07-29T09:20:22;5.60;;;5.10;;
505;SDS011;551;48.524;9.056;2022-07-29T09:22:48;5.40;;;5.00;;
505;SDS011;551;48.524;9.056;2022-07-29T09:25:15;4.90;;;4.57;;
505;SDS011;551;48.524;9.056;2022-07-29T09:28:04;7.80;;;4.80;;
505;SDS011;551;48.524;9.056;2022-07-29T09:30:54;5.80;;;4.60;;
505;SDS011;551;48.524;9.056;2022-07-29T09:33:23;4.77;;;4.40;;
505;SDS011;551;48.524;9.056;2022-07-29T09:35:59;6.50;;;5.47;;
505;SDS011;551;48.524;9.056;2022-07-29T09:38:32;5.90;;;5.40;;
505;SDS011;551;48.524;9.056;2022-07-29T09:40:59;9.40;;;5.30;;
505;SDS011;551;48.524;9.056;2022-07-29T09:43:25;5.87;;;5.30;;
505;SDS011;551;48.524;9.056;2022-07-29T09:45:51;5.70;;;5.30;;
505;SDS011;551;48.524;9.056;2022-07-29T09:48:19;5.40;;;5.00;;
505;SDS011;551;48.524;9.056;2022-07-29T09:50:54;5.80;;;5.10;;
505;SDS011;551;48.524;9.056;2022-07-29T09:53:29;6.03;;;5.57;;
505;SDS011;551;48.524;9.056;2022-07-29T09:55:57;10.87;;;5.50;;
505;SDS011;551;48.524;9.056;2022-07-29T09:58:23;6.17;;;5.57;;
505;SDS011;551;48.524;9.056;2022-07-29T10:00:49;6.80;;;6.00;;
505;SDS011;551;48.524;9.056;2022-07-29T10:03:15;6.00;;;5.40;;
505;SDS011;551;48.524;9.056;2022-07-29T10:05:42;6.20;;;5.47;;
505;SDS011;551;48.524;9.056;2022-07-29T10:08:08;6.00;;;5.60;;
505;SDS011;551;48.524;9.056;2022-07-29T10:10:39;5.53;;;5.13;;
505;SDS011;551;48.524;9.056;2022-07-29T10:13:07;6.00;;;5.40;;
505;SDS011;551;48.524;9.056;2022-07-29T10:15:35;8.17;;;5.30;;
505;SDS011;551;48.524;9.056;2022-07-29T10:18:03;5.87;;;5.37;;
505;SDS011;551;48.524;9.056;2022-07-29T10:20:29;5.27;;;4.80;;
505;SDS011;551;48.524;9.056;2022-07-29T10:22:55;5.40;;;5.00;;
505;SDS011;551;48.524;9.056;2022-07-29T10:25:21;5.80;;;5.30;;
505;SDS011;551;48.524;9.056;2022-07-29T10:27:49;6.90;;;6.30;;
505;SDS011;551;48.524;9.056;2022-07-29T10:30:16;4.80;;;4.50;;
505;SDS011;551;48.524;9.056;2022-07-29T10:40:37;6.30;;;5.60;;
505;SDS011;551;48.524;9.056;2022-07-29T10:43:33;7.43;;;5.40;;
505;SDS011;551;48.524;9.056;2022-07-29T10:46:03;5.90;;;5.40;;
505;SDS011;551;48.524;9.056;2022-07-29T10:48:29;5.80;;;5.30;;
505;SDS011;551;48.524;9.056;2022-07-29T10:50:59;6.90;;;5.53;;
505;SDS011;551;48.524;9.056;2022-07-29T10:56:25;4.40;;;4.10;;
505;SDS011;551;48.524;9.056;2022-07-29T10:59:22;5.00;;;4.50;;
505;SDS011;551;48.524;9.056;2022-07-29T11:01:49;6.30;;;4.63;;
505;SDS011;551;48.524;9.056;2022-07-29T11:04:16;6.27;;;4.90;;
505;SDS011;551;48.524;9.056;2022-07-29T11:07:10;6.87;;;4.87;;
505;SDS011;551;48.524;9.056;2022-07-29T11:09:36;8.70;;;5.00;;
505;SDS011;551;48.524;9.056;2022-07-29T11:12:02;5.37;;;4.53;;
505;SDS011;551;48.524;9.056;2022-07-29T11:17:23;4.73;;;4.17;;
505;SDS011;551;48.524;9.056;2022-07-29T11:19:50;7.93;;;4.43;;
505;SDS011;551;48.524;9.056;2022-07-29T11:22:32;4.73;;;4.20;;
505;SDS011;551;48.524;9.056;2022-07-29T11:25:12;4.80;;;4.40;;
505;SDS011;551;48.524;9.056;2022-07-29T11:27:38;3.97;;;3.57;;
505;SDS011;551;48.524;9.056;2022-07-29T11:30:05;4.13;;;3.73;;
505;SDS011;551;48.524;9.056;2022-07-29T11:32:36;5.10;;;3.00;;
505;SDS011;551;48.524;9.056;2022-07-29T11:35:13;7.23;;;3.00;;
505;SDS011;551;48.524;9.056;2022-07-29T11:37:38;3.53;;;3.00;;
505;SDS011;551;48.524;9.056;2022-07-29T11:45:06;4.40;;;3.23;;
505;SDS011;551;48.524;9.056;2022-07-29T11:47:38;3.20;;;3.00;;
505;SDS011;551;48.524;9.056;2022-07-29T11:50:05;2.70;;;2.50;;
505;SDS011;551;48.524;9.056;2022-07-29T11:52:38;2.73;;;2.63;;
505;SDS011;551;48.524;9.056;2022-07-29T11:55:14;2.87;;;2.67;;
505;SDS011;551;48.524;9.056;2022-07-29T11:57:48;2.90;;;2.70;;
505;SDS011;551;48.524;9.056;2022-07-29T12:02:52;4.80;;;3.10;;
505;SDS011;551;48.524;9.056;2022-07-29T12:05:18;3.20;;;2.73;;
505;SDS011;551;48.524;9.056;2022-07-29T12:07:44;3.47;;;3.20;;
505;SDS011;551;48.524;9.056;2022-07-29T12:10:10;3.27;;;2.87;;
505;SDS011;551;48.524;9.056;2022-07-29T12:12:36;3.67;;;3.30;;
505;SDS011;551;48.524;9.056;2022-07-29T12:15:13;3.30;;;2.97;;
505;SDS011;551;48.524;9.056;2022-07-29T12:17:45;3.60;;;3.40;;
505;SDS011;551;48.524;9.056;2022-07-29T12:20:11;5.53;;;4.67;;
505;SDS011;551;48.524;9.056;2022-07-29T12:22:39;4.30;;;4.00;;
505;SDS011;551;48.524;9.056;2022-07-29T12:25:09;4.40;;;4.10;;
505;SDS011;551;48.524;9.056;2022-07-29T12:27:37;4.17;;;3.93;;
505;SDS011;551;48.524;9.056;2022-07-29T12:30:07;4.47;;;4.07;;
505;SDS011;551;48.524;9.056;2022-07-29T12:32:35;4.63;;;4.20;;
505;SDS011;551;48.524;9.056;2022-07-29T12:37:37;5.23;;;4.20;;
505;SDS011;551;48.524;9.056;2022-07-29T12:40:05;4.53;;;4.13;;
505;SDS011;551;48.524;9.056;2022-07-29T12:42:32;5.17;;;4.70;;
505;SDS011;551;48.524;9.056;2022-07-29T12:44:58;5.30;;;4.40;;
505;SDS011;551;48.524;9.056;2022-07-29T12:47:24;5.07;;;4.57;;
505;SDS011;551;48.524;9.056;2022-07-29T12:49:50;5.00;;;4.10;;
505;SDS011;551;48.524;9.056;2022-07-29T12:52:29;4.93;;;4.63;;
505;SDS011;551;48.524;9.056;2022-07-29T12:54:56;3.97;;;3.60;;
505;SDS011;551;48.524;9.056;2022-07-29T12:57:23;5.13;;;4.60;;
505;SDS011;551;48.524;9.056;2022-07-29T12:59:59;4.73;;;4.37;;
505;SDS011;551;48.524;9.056;2022-07-29T13:02:24;4.63;;;4.13;;
505;SDS011;551;48.524;9.056;2022-07-29T13:04:56;4.07;;;3.77;;
505;SDS011;551;48.524;9.056;2022-07-29T13:07:26;6.90;;;3.97;;
505;SDS011;551;48.524;9.056;2022-07-29T13:12:36;4.40;;;4.10;;
505;SDS011;551;48.524;9.056;2022-07-29T13:15:12;4.70;;;4.33;;
505;SDS011;551;48.524;9.056;2022-07-29T13:17:40;5.20;;;4.80;;
505;SDS011;551;48.524;9.056;2022-07-29T13:20:08;4.97;;;4.50;;
505;SDS011;551;48.524;9.056;2022-07-29T13:22:37;5.67;;;5.00;;
505;SDS011;551;48.524;9.056;2022-07-29T13:25:03;6.23;;;4.80;;
505;SDS011;551;48.524;9.056;2022-07-29T13:27:31;5.13;;;4.33;;
505;SDS011;551;48.524;9.056;2022-07-29T13:29:58;5.10;;;4.80;;
505;SDS011;551;48.524;9.056;2022-07-29T13:32:26;4.60;;;4.20;;
505;SDS011;551;48.524;9.056;2022-07-29T13:34:53;4.97;;;3.80;;
505;SDS011;551;48.524;9.056;2022-07-29T13:37:23;4.70;;;4.30;;
505;SDS011;551;48.524;9.056;2022-07-29T13:39:49;4.77;;;4.30;;
505;SDS011;551;48.524;9.056;2022-07-29T13:42:15;5.50;;;5.00;;
505;SDS011;551;48.524;9.056;2022-07-29T13:44:40;7.20;;;4.80;;
505;SDS011;551;48.524;9.056;2022-07-29T13:47:06;7.53;;;4.30;;
505;SDS011;551;48.524;9.056;2022-07-29T13:49:33;5.53;;;5.03;;
505;SDS011;551;48.524;9.056;2022-07-29T13:51:59;6.17;;;5.07;;
505;SDS011;551;48.524;9.056;2022-07-29T13:54:25;5.93;;;4.80;;
505;SDS011;551;48.524;9.056;2022-07-29T13:56:50;5.00;;;4.20;;
505;SDS011;551;48.524;9.056;2022-07-29T13:59:16;4.17;;;3.80;;
505;SDS011;551;48.524;9.056;2022-07-29T14:01:42;4.80;;;4.33;;
505;SDS011;551;48.524;9.056;2022-07-29T14:04:08;5.33;;;4.87;;
505;SDS011;551;48.524;9.056;2022-07-29T14:06:34;4.70;;;4.33;;
505;SDS011;551;48.524;9.056;2022-07-29T14:09:00;4.90;;;4.50;;
505;SDS011;551;48.524;9.056;2022-07-29T14:11:26;7.47;;;4.77;;
505;SDS011;551;48.524;9.056;2022-07-29T14:13:52;4.40;;;4.00;;
505;SDS011;551;48.524;9.056;2022-07-29T14:16:17;5.27;;;4.83;;
505;SDS011;551;48.524;9.056;2022-07-29T14:18:43;8.03;;;4.43;;
505;SDS011;551;48.524;9.056;2022-07-29T14:21:09;4.87;;;4.33;;
505;SDS011;551;48.524;9.056;2022-07-29T14:23:34;5.03;;;4.63;;
505;SDS011;551;48.524;9.056;2022-07-29T14:26:01;5.30;;;4.63;;
505;SDS011;551;48.524;9.056;2022-07-29T14:28:26;5.17;;;4.63;;
505;SDS011;551;48.524;9.056;2022-07-29T14:30:52;5.50;;;5.00;;
505;SDS011;551;48.524;9.056;2022-07-29T14:33:17;4.50;;;4.20;;
505;SDS011;551;48.524;9.056;2022-07-29T14:35:44;4.77;;;4.47;;
505;SDS011;551;48.524;9.056;2022-07-29T14:38:10;5.00;;;4.60;;
505;SDS011;551;48.524;9.056;2022-07-29T14:40:35;5.93;;;4.87;;
505;SDS011;551;48.524;9.056;2022-07-29T14:43:01;5.27;;;4.87;;
505;SDS011;551;48.524;9.056;2022-07-29T14:45:27;5.00;;;4.60;;
505;SDS011;551;48.524;9.056;2022-07-29T14:47:53;6.00;;;5.40;;
505;SDS011;551;48.524;9.056;2022-07-29T14:50:19;5.43;;;4.60;;
505;SDS011;551;48.524;9.056;2022-07-29T14:52:44;5.43;;;4.90;;
505;SDS011;551;48.524;9.056;2022-07-29T14:55:10;6.10;;;4.77;;
505;SDS011;551;48.524;9.056;2022-07-29T14:57:36;5.30;;;4.90;;
505;SDS011;551;48.524;9.056;2022-07-29T15:00:03;7.37;;;4.70;;
505;SDS011;551;48.524;9.056;2022-07-29T15:02:31;4.97;;;4.57;;
505;SDS011;551;48.524;9.056;2022-07-29T15:04:56;4.73;;;4.43;;
505;SDS011;551;48.524;9.056;2022-07-29T15:07:22;5.90;;;4.90;;
505;SDS011;551;48.524;9.056;2022-07-29T15:09:47;5.00;;;4.60;;
505;SDS011;551;48.524;9.056;2022-07-29T15:12:13;6.23;;;4.50;;
505;SDS011;551;48.524;9.056;2022-07-29T15:14:38;4.57;;;4.17;;
505;SDS011;551;48.524;9.056;2022-07-29T15:17:04;4.33;;;4.03;;
505;SDS011;551;48.524;9.056;2022-07-29T15:19:29;4.47;;;4.17;;
505;SDS011;551;48.524;9.056;2022-07-29T15:21:55;5.27;;;4.50;;
505;SDS011;551;48.524;9.056;2022-07-29T15:24:21;5.53;;;5.03;;
505;SDS011;551;48.524;9.056;2022-07-29T15:26:46;6.70;;;4.63;;
505;SDS011;551;48.524;9.056;2022-07-29T15:29:12;7.00;;;4.37;;
505;SDS011;551;48.524;9.056;2022-07-29T15:31:38;6.93;;;4.30;;
505;SDS011;551;48.524;9.056;2022-07-29T15:34:03;5.60;;;4.70;;
505;SDS011;551;48.524;9.056;2022-07-29T15:36:30;6.53;;;4.70;;
505;SDS011;551;48.524;9.056;2022-07-29T15:38:55;5.03;;;4.27;;
505;SDS011;551;48.524;9.056;2022-07-29T15:41:21;5.00;;;4.70;;
505;SDS011;551;48.524;9.056;2022-07-29T15:43:47;5.07;;;4.57;;
505;SDS011;551;48.524;9.056;2022-07-29T15:46:14;6.13;;;5.57;;
505;SDS011;551;48.524;9.056;2022-07-29T15:49:00;6.00;;;5.37;;
505;SDS011;551;48.524;9.056;2022-07-29T15:51:26;5.33;;;4.60;;
505;SDS011;551;48.524;9.056;2022-07-29T15:53:51;6.63;;;5.70;;
505;SDS011;551;48.524;9.056;2022-07-29T15:56:17;5.13;;;4.73;;
505;SDS011;551;48.524;9.056;2022-07-29T15:58:43;6.00;;;5.47;;
505;SDS011;551;48.524;9.056;2022-07-29T16:01:08;5.67;;;5.17;;
505;SDS011;551;48.524;9.056;2022-07-29T16:03:34;5.60;;;5.10;;
505;SDS011;551;48.524;9.056;2022-07-29T16:06:00;8.43;;;6.07;;
505;SDS011;551;48.524;9.056;2022-07-29T16:08:25;5.93;;;5.00;;
505;SDS011;551;48.524;9.056;2022-07-29T16:10:51;5.57;;;5.10;;
505;SDS011;551;48.524;9.056;2022-07-29T16:13:17;6.23;;;5.23;;
505;SDS011;551;48.524;9.056;2022-07-29T16:15:43;5.33;;;4.90;;